Time;durP1;ratioP1;P1;durP2;ratioP2;P2;SDS_P1;SDS_P2;PMS_P1;PMS_P2;Temp;Humidity;BMP_temperature;BMP_pressure;BME280_temperature;BME280_humidity;BME280_pressure;Samples;Min_cycle;Max_cycle;Signal;HPM_P1;HPM_P2
2022/12/27 00:00:46;;;;;;;8.88;3.08;;;9.70;95.50;;;;;;5070619;28;20040;-66
2022/12/27 00:03:11;;;;;;;9.35;3.92;;;9.70;95.50;;;;;;5072128;28;20087;-66
2022/12/27 00:05:41;;;;;;;9.80;3.20;;;9.70;95.60;;;;;;5071987;28;20023;-66
2022/12/27 00:08:06;;;;;;;10.85;3.03;;;9.50;95.70;;;;;;5071860;28;20067;-66
2022/12/27 00:10:32;;;;;;;7.47;3.00;;;9.70;95.60;;;;;;5072118;28;20378;-66
2022/12/27 00:12:57;;;;;;;13.23;3.78;;;9.60;95.80;;;;;;5071985;28;20024;-66
2022/12/27 00:15:23;;;;;;;10.32;3.85;;;9.70;95.80;;;;;;5072052;28;20378;-66
2022/12/27 00:17:49;;;;;;;8.27;3.42;;;9.70;95.70;;;;;;5072322;28;20085;-66
2022/12/27 00:20:15;;;;;;;9.23;3.53;;;9.50;95.80;;;;;;5071732;28;20469;-66
2022/12/27 00:22:41;;;;;;;8.00;3.10;;;9.50;96.00;;;;;;5071301;28;20062;-67
2022/12/27 00:25:07;;;;;;;9.32;3.15;;;9.60;95.90;;;;;;5071821;28;20473;-66
2022/12/27 00:27:33;;;;;;;6.45;2.80;;;9.60;95.90;;;;;;5071952;28;20113;-66
2022/12/27 00:29:58;;;;;;;6.88;3.00;;;9.40;96.00;;;;;;5071819;28;20072;-66
2022/12/27 00:32:24;;;;;;;7.05;2.72;;;9.40;96.20;;;;;;5071603;28;20048;-66
2022/12/27 00:34:49;;;;;;;11.23;3.33;;;9.30;96.20;;;;;;5071692;28;20491;-66
2022/12/27 00:37:15;;;;;;;8.15;3.28;;;9.30;96.30;;;;;;5071708;28;20024;-67
2022/12/27 00:39:40;;;;;;;9.45;2.85;;;9.50;96.20;;;;;;5075465;28;20038;-66
2022/12/27 00:42:06;;;;;;;7.63;2.70;;;9.30;96.20;;;;;;5074109;28;20043;-66
2022/12/27 00:44:32;;;;;;;9.27;2.80;;;9.40;96.30;;;;;;5075349;28;20059;-66
2022/12/27 00:46:57;;;;;;;6.63;2.58;;;9.40;96.20;;;;;;5075299;28;20013;-67
2022/12/27 00:49:23;;;;;;;7.28;2.60;;;9.30;96.30;;;;;;5075054;28;20040;-67
2022/12/27 00:51:49;;;;;;;6.93;2.85;;;9.30;96.40;;;;;;5074359;28;20137;-66
2022/12/27 00:54:15;;;;;;;7.93;3.28;;;9.30;96.50;;;;;;5073414;28;20028;-66
2022/12/27 00:56:40;;;;;;;7.72;3.13;;;9.30;96.40;;;;;;5075108;28;20093;-66
2022/12/27 00:59:06;;;;;;;8.60;2.70;;;9.30;96.50;;;;;;5074786;28;20021;-67
2022/12/27 01:01:34;;;;;;;7.30;2.85;;;9.40;96.50;;;;;;5075167;28;20020;-66
2022/12/27 01:04:00;;;;;;;9.00;2.40;;;9.40;96.60;;;;;;5074905;28;20040;-66
2022/12/27 01:06:28;;;;;;;6.43;2.40;;;9.30;96.70;;;;;;5073342;28;20371;-66
2022/12/27 01:08:54;;;;;;;9.63;2.47;;;9.20;96.70;;;;;;5074935;28;20089;-66
2022/12/27 01:11:20;;;;;;;7.15;2.40;;;9.30;96.70;;;;;;5074775;28;20031;-66
2022/12/27 01:13:47;;;;;;;8.10;3.33;;;9.30;96.70;;;;;;5074990;28;20071;-66
2022/12/27 01:16:16;;;;;;;9.68;2.70;;;9.20;96.80;;;;;;5074721;28;20112;-66
2022/12/27 01:18:42;;;;;;;8.10;2.33;;;9.30;96.70;;;;;;5074218;28;20051;-66
2022/12/27 01:21:10;;;;;;;10.32;2.53;;;9.20;96.90;;;;;;5074520;28;20108;-66
2022/12/27 01:23:36;;;;;;;7.88;2.67;;;9.30;97.00;;;;;;5074750;28;20031;-66
2022/12/27 01:26:05;;;;;;;8.07;2.58;;;9.50;96.60;;;;;;5073528;28;20099;-66
2022/12/27 01:28:31;;;;;;;8.82;2.20;;;9.50;96.60;;;;;;5074275;28;20034;-66
2022/12/27 01:30:57;;;;;;;8.20;1.92;;;9.30;96.80;;;;;;5074617;28;20606;-66
2022/12/27 01:33:23;;;;;;;10.05;2.80;;;9.30;97.00;;;;;;5073805;28;20024;-66
2022/12/27 01:35:48;;;;;;;8.40;2.35;;;9.30;97.10;;;;;;5074503;28;20028;-67
2022/12/27 01:38:14;;;;;;;7.90;2.35;;;9.40;97.10;;;;;;5074323;28;20025;-66
2022/12/27 01:40:39;;;;;;;10.60;2.03;;;9.20;97.10;;;;;;5074335;28;20093;-66
2022/12/27 01:43:05;;;;;;;7.80;2.20;;;9.30;97.20;;;;;;5074375;28;20036;-66
2022/12/27 01:45:35;;;;;;;8.02;2.47;;;9.40;97.10;;;;;;5074293;28;20040;-66
2022/12/27 01:48:12;;;;;;;7.30;2.50;;;9.40;97.10;;;;;;5073442;28;20029;-67
2022/12/27 01:51:10;;;;;;;7.97;2.40;;;9.30;97.20;;;;;;5074157;28;20477;-68
2022/12/27 01:53:40;;;;;;;10.60;2.92;;;9.30;97.30;;;;;;5070883;28;20045;-66
2022/12/27 01:56:15;;;;;;;4.75;2.10;;;9.20;97.40;;;;;;5074167;28;20021;-66
2022/12/27 01:58:58;;;;;;;8.82;1.98;;;9.30;97.40;;;;;;5073854;28;20035;-67
2022/12/27 02:01:31;;;;;;;4.93;1.73;;;9.40;97.30;;;;;;5073915;28;20029;-67
2022/12/27 02:04:15;;;;;;;6.43;2.00;;;9.40;97.60;;;;;;5071992;28;20031;-67
2022/12/27 02:06:41;;;;;;;8.30;2.00;;;9.20;97.30;;;;;;5073792;28;20024;-67
2022/12/27 02:09:37;;;;;;;7.18;1.70;;;9.20;97.50;;;;;;5072282;28;20367;-66
2022/12/27 02:12:06;;;;;;;5.65;1.63;;;9.10;97.60;;;;;;5073756;28;20048;-67
2022/12/27 02:14:38;;;;;;;12.23;2.50;;;9.20;97.80;;;;;;5073373;28;20024;-66
2022/12/27 02:17:11;;;;;;;9.75;2.40;;;9.30;97.50;;;;;;5073536;28;20042;-67
2022/12/27 02:19:39;;;;;;;9.25;2.22;;;9.30;97.40;;;;;;5073337;28;20052;-67
2022/12/27 02:22:17;;;;;;;10.48;2.40;;;9.30;97.50;;;;;;5073510;28;20035;-68
2022/12/27 02:25:10;;;;;;;10.07;2.35;;;9.20;97.40;;;;;;5073479;28;20016;-67
2022/12/27 02:27:50;;;;;;;10.13;2.13;;;9.20;97.50;;;;;;5053326;28;20052;-67
2022/12/27 02:30:16;;;;;;;5.07;2.05;;;9.20;97.60;;;;;;5053235;28;20037;-68
2022/12/27 02:32:55;;;;;;;11.60;2.28;;;9.20;97.50;;;;;;5063222;28;20534;-67
2022/12/27 02:35:28;;;;;;;6.80;1.77;;;9.50;97.50;;;;;;5069020;28;20488;-67
2022/12/27 02:38:00;;;;;;;7.57;1.95;;;9.50;97.10;;;;;;5071078;28;20031;-67
2022/12/27 02:59:13;;;;;;;7.25;1.73;;;9.40;97.30;;;;;;5072695;28;20519;-66
2022/12/27 03:05:02;;;;;;;6.93;1.77;;;9.30;97.30;;;;;;5071033;28;20047;-66
2022/12/27 03:07:49;;;;;;;9.35;1.90;;;9.20;97.50;;;;;;5071354;28;20032;-67
2022/12/27 03:16:31;;;;;;;4.30;1.33;;;9.20;97.50;;;;;;5064406;28;20460;-65
2022/12/27 03:25:26;;;;;;;8.50;1.95;;;9.20;97.50;;;;;;5068264;28;20424;-66
2022/12/27 03:27:33;;;;;;;5.55;1.75;;;9.50;97.50;;;;;;5070159;28;20031;-66
2022/12/27 03:33:13;;;;;;;8.98;2.13;;;9.50;97.60;;;;;;5072770;28;20029;-67
2022/12/27 03:39:16;;;;;;;6.20;1.65;;;9.40;97.20;;;;;;5072727;28;20083;-66
2022/12/27 03:44:32;;;;;;;8.82;2.13;;;9.10;97.60;;;;;;5071855;28;20127;-66
2022/12/27 03:47:02;;;;;;;11.35;2.15;;;9.20;97.70;;;;;;5072482;28;20017;-66
2022/12/27 03:49:32;;;;;;;6.65;1.63;;;9.00;97.80;;;;;;5072189;28;20115;-65
2022/12/27 03:52:07;;;;;;;8.95;1.90;;;9.00;97.90;;;;;;5072245;28;20077;-65
2022/12/27 03:54:38;;;;;;;6.90;1.50;;;8.90;97.90;;;;;;5072035;28;20028;-66
2022/12/27 03:57:11;;;;;;;12.95;2.53;;;9.00;97.90;;;;;;5072184;28;20028;-65
2022/12/27 03:59:37;;;;;;;;;;;9.10;97.70;;;;;;5051879;28;20240;-65
2022/12/27 04:02:03;;;;;;;9.32;1.70;;;9.10;97.60;;;;;;5052186;28;19913;-65
2022/12/27 04:04:28;;;;;;;6.22;1.95;;;8.90;97.80;;;;;;5052255;28;20024;-65
2022/12/27 04:06:54;;;;;;;8.82;2.17;;;9.00;97.90;;;;;;5050875;28;20354;-66
2022/12/27 04:36:42;;;;;;;8.15;1.90;;;9.10;97.90;;;;;;5075515;28;20106;-66
2022/12/27 04:39:07;;;;;;;7.97;1.88;;;9.20;97.70;;;;;;5075559;28;20473;-66
2022/12/27 04:55:20;;;;;;;10.48;2.10;;;8.60;98.40;;;;;;5074896;28;20093;-66
2022/12/27 04:57:45;;;;;;;7.00;1.77;;;8.60;98.70;;;;;;5072711;28;20024;-66
2022/12/27 05:02:58;;;;;;;8.43;2.20;;;8.60;98.60;;;;;;5075194;28;20043;-67
2022/12/27 05:05:24;;;;;;;6.68;1.80;;;8.60;98.50;;;;;;5074959;28;20025;-66
2022/12/27 05:16:03;;;;;;;6.90;2.03;;;8.60;98.50;;;;;;5074776;28;20040;-66
2022/12/27 05:18:29;;;;;;;9.07;1.75;;;8.60;98.50;;;;;;5074550;28;20421;-65
2022/12/27 05:20:54;;;;;;;8.80;2.58;;;8.60;98.50;;;;;;5074104;28;20476;-66
2022/12/27 05:26:04;;;;;;;5.35;1.60;;;8.60;98.40;;;;;;5074462;28;20036;-66
2022/12/27 05:28:30;;;;;;;15.93;2.15;;;8.50;98.60;;;;;;5074514;28;20020;-66
2022/12/27 05:31:01;;;;;;;6.22;1.50;;;8.50;98.60;;;;;;5074275;28;20094;-66
2022/12/27 05:33:30;;;;;;;6.18;2.53;;;8.40;98.60;;;;;;5074226;28;20040;-66
2022/12/27 05:35:58;;;;;;;10.02;1.95;;;8.50;98.70;;;;;;5074343;28;20024;-66
2022/12/27 05:38:23;;;;;;;6.10;1.77;;;8.40;98.70;;;;;;5074403;28;20024;-65
2022/12/27 05:40:49;;;;;;;6.85;1.88;;;8.30;98.90;;;;;;5074106;28;20041;-66
2022/12/27 05:43:14;;;;;;;6.97;1.40;;;8.30;98.90;;;;;;5074232;28;20036;-66
2022/12/27 05:45:40;;;;;;;8.55;2.30;;;8.20;98.90;;;;;;5074301;28;20028;-66
2022/12/27 05:48:05;;;;;;;7.00;2.03;;;8.50;97.90;;;;;;5072820;28;20103;-66
2022/12/27 05:50:31;;;;;;;7.55;1.70;;;8.80;97.00;;;;;;5073923;28;20075;-66
2022/12/27 05:52:57;;;;;;;5.32;1.80;;;8.80;96.80;;;;;;5073927;28;20032;-66
2022/12/27 05:55:22;;;;;;;5.05;1.35;;;8.80;96.90;;;;;;5073870;28;20025;-66
2022/12/27 05:57:48;;;;;;;5.63;1.55;;;8.80;96.70;;;;;;5072757;28;20012;-65
2022/12/27 06:00:14;;;;;;;8.65;1.88;;;8.90;96.80;;;;;;5072379;28;20477;-66
2022/12/27 06:02:40;;;;;;;6.30;1.98;;;8.70;96.70;;;;;;5054422;28;20033;-65
2022/12/27 06:05:07;;;;;;;6.57;1.85;;;8.80;96.90;;;;;;5061858;28;20089;-66
2022/12/27 06:07:34;;;;;;;4.68;1.83;;;8.80;96.70;;;;;;5071823;28;20070;-66
2022/12/27 06:10:00;;;;;;;6.63;2.15;;;8.80;96.90;;;;;;5073309;28;20029;-66
2022/12/27 06:12:26;;;;;;;6.60;1.88;;;8.90;96.80;;;;;;5073660;28;20034;-67
2022/12/27 06:14:52;;;;;;;6.63;1.75;;;8.70;97.00;;;;;;5073712;28;20500;-66
2022/12/27 06:17:18;;;;;;;8.63;1.92;;;8.70;97.20;;;;;;5073666;28;20020;-66
2022/12/27 06:19:43;;;;;;;9.85;2.35;;;8.60;97.20;;;;;;5073052;28;20105;-66
2022/12/27 06:22:09;;;;;;;7.00;2.08;;;8.50;97.30;;;;;;5068701;28;20036;-67
2022/12/27 06:24:35;;;;;;;5.90;2.08;;;8.60;97.30;;;;;;5053209;28;20017;-66
2022/12/27 06:27:00;;;;;;;11.93;2.67;;;8.50;97.40;;;;;;5053711;28;20646;-66
2022/12/27 06:29:26;;;;;;;8.93;2.25;;;8.50;97.60;;;;;;5061941;28;20056;-66
2022/12/27 06:31:53;;;;;;;9.02;2.83;;;8.50;97.10;;;;;;5073464;28;20128;-67
2022/12/27 06:34:18;;;;;;;6.45;1.95;;;8.60;97.10;;;;;;5073138;28;20099;-66
2022/12/27 06:36:49;;;;;;;6.38;1.98;;;8.60;97.20;;;;;;5072431;28;20028;-66
2022/12/27 06:39:15;;;;;;;9.50;2.85;;;8.60;97.10;;;;;;5072547;28;20469;-66
2022/12/27 06:41:41;;;;;;;7.70;2.42;;;8.50;97.30;;;;;;5073366;28;20032;-66
2022/12/27 06:44:06;;;;;;;6.18;1.70;;;8.70;97.30;;;;;;5072996;28;20431;-66
2022/12/27 06:46:32;;;;;;;9.18;2.03;;;8.70;97.30;;;;;;5073097;28;20025;-66
2022/12/27 06:48:58;;;;;;;6.50;1.92;;;8.90;97.00;;;;;;5072707;28;20025;-66
2022/12/27 06:51:23;;;;;;;5.70;1.85;;;8.90;97.10;;;;;;5073082;28;20039;-66
2022/12/27 06:53:49;;;;;;;7.75;2.28;;;8.80;97.00;;;;;;5071181;28;20044;-66
2022/12/27 06:56:23;;;;;;;8.75;2.90;;;8.80;97.40;;;;;;5072973;28;20035;-66
2022/12/27 06:58:49;;;;;;;10.02;2.22;;;8.60;97.40;;;;;;5073038;28;20369;-66
2022/12/27 07:01:20;;;;;;;6.32;2.20;;;8.60;97.70;;;;;;5073151;28;20036;-66
2022/12/27 07:03:54;;;;;;;7.25;2.15;;;8.70;97.60;;;;;;5072706;28;20024;-65
2022/12/27 07:06:20;;;;;;;12.55;2.55;;;8.50;97.60;;;;;;5072647;28;20064;-66
2022/12/27 07:08:47;;;;;;;6.03;2.45;;;8.50;97.70;;;;;;5072118;28;20059;-66
2022/12/27 07:11:14;;;;;;;5.18;2.28;;;8.50;97.90;;;;;;5071253;28;20035;-66
2022/12/27 07:13:42;;;;;;;4.68;2.20;;;8.60;97.70;;;;;;5072797;28;20024;-66
2022/12/27 07:16:10;;;;;;;8.38;2.85;;;8.60;97.60;;;;;;5072442;28;20027;-66
2022/12/27 07:18:36;;;;;;;5.53;2.47;;;8.60;97.70;;;;;;5072284;28;20032;-66
2022/12/27 07:21:15;;;;;;;8.82;2.55;;;8.60;97.70;;;;;;5072487;28;20040;-66
2022/12/27 07:23:41;;;;;;;7.72;2.80;;;8.60;97.60;;;;;;5072618;28;20113;-66
2022/12/27 07:26:10;;;;;;;13.02;2.92;;;8.80;97.60;;;;;;5071212;28;20103;-66
2022/12/27 07:28:37;;;;;;;6.03;2.67;;;8.80;97.30;;;;;;5072575;28;20028;-66
2022/12/27 07:31:14;;;;;;;8.57;3.13;;;8.90;97.40;;;;;;5070323;28;20041;-66
2022/12/27 07:33:40;;;;;;;8.20;2.15;;;8.80;97.50;;;;;;5072306;28;20053;-66
2022/12/27 07:36:09;;;;;;;10.18;3.05;;;8.60;97.60;;;;;;5072101;28;20477;-66
2022/12/27 07:38:35;;;;;;;8.48;2.70;;;8.60;97.80;;;;;;5088117;28;20032;-66
2022/12/27 07:41:01;;;;;;;11.68;3.25;;;8.60;97.70;;;;;;5071107;28;20017;-66
2022/12/27 07:43:33;;;;;;;8.32;3.55;;;8.70;97.70;;;;;;5072629;28;20024;-66
2022/12/27 07:46:07;;;;;;;6.93;3.80;;;8.70;98.00;;;;;;5072319;28;20108;-67
2022/12/27 07:48:33;;;;;;;8.88;4.03;;;8.60;97.90;;;;;;5076132;28;20131;-66
2022/12/27 07:50:59;;;;;;;8.98;4.82;;;8.40;98.00;;;;;;5076046;28;20070;-66
2022/12/27 07:53:24;;;;;;;9.52;4.00;;;8.30;98.10;;;;;;5076470;28;20028;-66
2022/12/27 07:55:50;;;;;;;9.57;3.72;;;8.30;98.30;;;;;;5076158;28;20107;-66
2022/12/27 07:58:17;;;;;;;9.95;4.95;;;8.40;98.00;;;;;;5076353;28;20028;-66
2022/12/27 08:00:47;;;;;;;16.10;7.93;;;8.40;98.10;;;;;;5076513;28;20028;-66
2022/12/27 08:03:13;;;;;;;22.13;11.45;;;8.30;98.20;;;;;;5075694;28;20033;-66
2022/12/27 08:05:48;;;;;;;21.42;9.40;;;8.20;98.30;;;;;;5075879;28;20098;-66
2022/12/27 08:08:19;;;;;;;16.98;8.38;;;8.30;98.40;;;;;;5076118;28;20021;-67
2022/12/27 08:10:44;;;;;;;28.38;13.20;;;8.30;98.20;;;;;;5076049;28;20452;-66
2022/12/27 08:13:10;;;;;;;27.23;13.77;;;8.50;98.00;;;;;;5076087;28;20103;-66
2022/12/27 08:15:37;;;;;;;33.75;16.77;;;8.40;98.10;;;;;;5075881;28;20024;-66
2022/12/27 08:18:03;;;;;;;25.02;12.63;;;8.30;98.10;;;;;;5075854;28;20047;-66
2022/12/27 08:20:29;;;;;;;23.13;11.60;;;8.50;98.10;;;;;;5075561;28;20484;-66
2022/12/27 08:22:55;;;;;;;19.50;10.23;;;8.50;98.00;;;;;;5076081;28;20073;-67
2022/12/27 08:25:20;;;;;;;16.88;9.70;;;8.50;98.10;;;;;;5075579;28;20107;-67
2022/12/27 08:27:46;;;;;;;11.57;7.55;;;8.30;98.20;;;;;;5075762;28;20099;-66
2022/12/27 08:30:12;;;;;;;12.45;5.07;;;8.50;98.30;;;;;;5075358;28;20040;-66
2022/12/27 08:32:38;;;;;;;8.70;3.88;;;8.60;98.10;;;;;;5075024;28;20029;-66
2022/12/27 08:35:04;;;;;;;5.65;2.97;;;8.60;98.10;;;;;;5075142;28;20031;-66
2022/12/27 08:37:29;;;;;;;7.57;3.17;;;8.60;98.00;;;;;;5075369;28;20027;-66
2022/12/27 08:39:55;;;;;;;9.02;4.05;;;8.70;98.10;;;;;;5075650;28;20030;-66
2022/12/27 08:42:21;;;;;;;7.40;2.97;;;8.70;98.10;;;;;;5075432;28;20028;-67
2022/12/27 08:44:46;;;;;;;6.80;3.22;;;8.80;98.10;;;;;;5075374;28;20021;-66
2022/12/27 08:47:12;;;;;;;8.15;2.95;;;8.90;97.70;;;;;;5074609;28;20033;-66
2022/12/27 08:49:37;;;;;;;7.88;3.03;;;8.70;97.90;;;;;;5074560;28;20040;-66
2022/12/27 08:52:03;;;;;;;8.70;3.20;;;8.60;98.20;;;;;;5074654;28;20101;-67
2022/12/27 08:54:29;;;;;;;7.43;2.97;;;8.80;97.90;;;;;;5075429;28;20027;-66
2022/12/27 08:56:54;;;;;;;9.35;3.70;;;8.90;97.90;;;;;;5075253;28;20480;-66
2022/12/27 08:59:20;;;;;;;11.35;3.65;;;9.00;97.90;;;;;;5074006;28;20033;-67
2022/12/27 09:01:46;;;;;;;6.47;3.17;;;9.00;98.10;;;;;;5074970;28;20028;-67
2022/12/27 09:04:11;;;;;;;6.82;3.08;;;9.00;98.00;;;;;;5074505;28;20037;-66
2022/12/27 09:06:38;;;;;;;7.43;3.80;;;9.20;97.80;;;;;;5075063;28;20024;-66
2022/12/27 09:09:04;;;;;;;8.48;3.67;;;9.00;97.70;;;;;;5074840;28;20041;-66
2022/12/27 09:11:32;;;;;;;8.43;3.03;;;8.90;98.10;;;;;;5074866;28;20017;-66
2022/12/27 09:14:01;;;;;;;8.68;3.75;;;8.90;98.20;;;;;;5074882;28;20520;-66
2022/12/27 09:16:28;;;;;;;7.80;3.25;;;9.00;98.10;;;;;;5073581;28;20017;-66
2022/12/27 09:18:56;;;;;;;9.52;3.42;;;9.00;98.20;;;;;;5074320;28;20416;-67
2022/12/27 09:21:23;;;;;;;7.85;3.58;;;9.00;98.20;;;;;;5074406;28;20037;-67
2022/12/27 09:23:50;;;;;;;7.93;3.42;;;8.90;98.30;;;;;;5074402;28;20024;-66
2022/12/27 09:26:18;;;;;;;11.63;4.70;;;8.90;98.40;;;;;;5074734;28;20029;-67
2022/12/27 09:28:45;;;;;;;7.38;4.07;;;8.70;98.50;;;;;;5074567;28;20028;-66
2022/12/27 09:31:15;;;;;;;7.65;3.58;;;8.80;98.60;;;;;;5074542;28;20036;-67
2022/12/27 09:33:41;;;;;;;5.63;3.13;;;9.20;98.30;;;;;;5073108;28;20033;-66
2022/12/27 09:36:09;;;;;;;5.43;2.85;;;9.60;98.10;;;;;;5072790;28;20103;-66
2022/12/27 09:38:36;;;;;;;7.38;3.55;;;9.60;97.90;;;;;;5070849;28;20031;-66
2022/12/27 09:41:05;;;;;;;8.73;3.80;;;9.70;97.70;;;;;;5072406;28;20028;-66
2022/12/27 09:44:12;;;;;;;8.40;4.22;;;9.60;97.70;;;;;;5074148;28;20055;-66
2022/12/27 09:46:42;;;;;;;7.72;3.05;;;9.70;98.00;;;;;;5074124;28;20104;-66
2022/12/27 09:49:13;;;;;;;9.05;4.28;;;10.00;98.00;;;;;;5070986;28;20047;-67
2022/12/27 09:51:50;;;;;;;9.05;3.92;;;10.10;97.90;;;;;;5073317;28;20029;-66
2022/12/27 09:54:31;;;;;;;9.63;4.03;;;10.20;97.70;;;;;;5072220;28;20104;-66
2022/12/27 09:57:00;;;;;;;7.22;2.90;;;10.20;97.80;;;;;;5071608;28;20543;-68
2022/12/27 09:59:34;;;;;;;7.20;3.63;;;10.10;97.70;;;;;;5073236;28;20028;-66
2022/12/27 10:02:00;;;;;;;7.93;4.15;;;9.90;97.70;;;;;;5072650;28;20024;-66
2022/12/27 10:04:35;;;;;;;7.80;3.70;;;9.80;97.80;;;;;;5071776;28;20042;-66
2022/12/27 10:07:24;;;;;;;8.60;3.50;;;9.90;97.80;;;;;;5072252;28;20107;-65
2022/12/27 10:10:10;;;;;;;12.52;6.50;;;9.90;98.10;;;;;;5068707;28;20049;-65
2022/12/27 10:13:03;;;;;;;11.02;4.55;;;9.70;98.10;;;;;;5072823;28;20029;-66
2022/12/27 10:15:57;;;;;;;7.88;4.43;;;9.70;98.40;;;;;;5071414;28;20487;-66
2022/12/27 10:18:34;;;;;;;8.48;3.63;;;9.50;98.60;;;;;;5071082;28;20016;-66
2022/12/27 10:21:20;;;;;;;7.75;2.95;;;9.70;98.80;;;;;;5072719;28;20031;-66
2022/12/27 10:23:53;;;;;;;11.85;3.95;;;9.80;98.80;;;;;;5051706;28;20100;-65
2022/12/27 10:26:19;;;;;;;12.13;4.57;;;9.80;98.80;;;;;;5069923;28;20025;-66
2022/12/27 10:28:49;;;;;;;6.57;2.63;;;9.90;98.80;;;;;;5071735;28;20401;-65
2022/12/27 10:31:21;;;;;;;7.82;2.83;;;10.20;99.50;;;;;;5072217;28;20119;-66
2022/12/27 10:33:48;;;;;;;5.43;2.67;;;10.50;99.20;;;;;;5073126;28;20036;-66
2022/12/27 10:36:17;;;;;;;5.75;2.15;;;10.60;98.90;;;;;;5073064;28;20059;-65
2022/12/27 10:38:43;;;;;;;12.40;2.90;;;10.60;98.90;;;;;;5071842;28;20500;-66
2022/12/27 10:41:33;;;;;;;7.93;2.97;;;10.70;98.90;;;;;;5072365;28;20032;-65
2022/12/27 10:43:59;;;;;;;10.40;2.75;;;10.80;98.50;;;;;;5073132;28;20060;-65
2022/12/27 10:46:30;;;;;;;6.18;2.35;;;10.80;98.70;;;;;;5072651;28;20081;-65
2022/12/27 10:49:19;;;;;;;6.25;2.45;;;10.90;98.70;;;;;;5070230;28;20074;-65
2022/12/27 10:51:46;;;;;;;9.55;2.97;;;10.90;98.50;;;;;;5071611;28;20708;-65
2022/12/27 10:54:30;;;;;;;6.68;2.13;;;11.00;98.40;;;;;;5071728;28;20028;-65
2022/12/27 10:57:14;;;;;;;5.57;2.42;;;11.10;98.60;;;;;;5072175;28;20036;-66
2022/12/27 10:59:39;;;;;;;7.65;2.50;;;11.10;98.50;;;;;;5070872;28;20048;-65
2022/12/27 11:02:05;;;;;;;9.35;3.08;;;11.10;98.40;;;;;;5071668;28;20115;-65
2022/12/27 11:04:31;;;;;;;8.40;2.63;;;11.20;98.30;;;;;;5071445;28;20028;-66
2022/12/27 11:07:03;;;;;;;9.10;3.63;;;11.20;98.40;;;;;;5071868;28;20017;-66
2022/12/27 11:09:35;;;;;;;5.63;2.22;;;11.30;98.20;;;;;;5071519;28;20072;-65
2022/12/27 11:12:14;;;;;;;5.95;2.33;;;11.40;98.40;;;;;;5071242;28;20059;-66
2022/12/27 11:14:52;;;;;;;4.60;2.22;;;11.40;98.20;;;;;;5069631;28;20046;-69
2022/12/27 11:17:21;;;;;;;4.85;1.60;;;11.50;98.10;;;;;;5071707;28;20021;-67
2022/12/27 11:19:47;;;;;;;10.73;2.55;;;11.50;98.40;;;;;;5071237;28;20039;-65
2022/12/27 11:22:13;;;;;;;6.88;2.05;;;11.60;98.20;;;;;;5070991;28;20024;-65
2022/12/27 11:24:48;;;;;;;5.57;2.20;;;11.60;98.20;;;;;;5070728;28;20020;-65
2022/12/27 11:27:24;;;;;;;5.35;2.05;;;11.70;98.00;;;;;;5070572;28;20484;-66
2022/12/27 11:29:50;;;;;;;6.63;2.28;;;11.80;97.90;;;;;;5070790;28;20480;-64
2022/12/27 11:32:18;;;;;;;6.38;3.25;;;11.70;97.90;;;;;;5071756;28;20029;-65
2022/12/27 11:34:45;;;;;;;7.30;2.35;;;11.70;97.70;;;;;;5071221;28;20028;-65
2022/12/27 11:37:15;;;;;;;5.13;2.38;;;11.70;98.00;;;;;;5071924;28;20017;-65
2022/12/27 11:39:44;;;;;;;6.45;1.90;;;11.80;97.90;;;;;;5070995;28;20105;-65
2022/12/27 11:42:37;;;;;;;5.15;2.33;;;11.80;97.90;;;;;;5070094;28;20102;-65
2022/12/27 11:45:23;;;;;;;6.70;2.03;;;11.90;97.90;;;;;;5070324;28;20378;-65
2022/12/27 11:48:05;;;;;;;5.47;2.70;;;11.90;97.60;;;;;;5071071;28;20107;-66
2022/12/27 11:51:22;;;;;;;6.93;2.05;;;11.80;97.50;;;;;;5070629;28;20040;-65
2022/12/27 11:54:00;;;;;;;4.22;1.80;;;11.90;97.60;;;;;;5070470;28;20623;-65
2022/12/27 11:56:28;;;;;;;9.40;2.75;;;11.90;97.60;;;;;;5071305;28;20543;-64
2022/12/27 11:58:57;;;;;;;5.95;2.20;;;11.80;97.50;;;;;;5071114;28;20036;-65
2022/12/27 12:02:00;;;;;;;7.32;2.53;;;11.90;97.70;;;;;;5071098;28;20047;-64
2022/12/27 12:04:44;;;;;;;;;;;11.90;97.40;;;;;;5071107;28;20044;-65
2022/12/27 12:07:28;;;;;;;5.30;2.20;;;11.90;97.30;;;;;;5071407;28;19961;-64
2022/12/27 12:10:00;;;;;;;5.70;2.13;;;11.90;97.50;;;;;;5070946;28;20473;-65
2022/12/27 12:12:37;;;;;;;9.38;2.72;;;11.90;97.40;;;;;;5070396;28;20462;-65
2022/12/27 12:15:40;;;;;;;9.70;2.75;;;11.90;97.60;;;;;;5070744;28;20067;-65
2022/12/27 12:18:23;;;;;;;5.65;2.42;;;11.90;97.50;;;;;;5071444;28;20626;-65
2022/12/27 12:21:12;;;;;;;9.30;3.42;;;11.90;97.50;;;;;;5070841;28;20024;-65
2022/12/27 12:24:02;;;;;;;4.55;1.90;;;11.90;97.50;;;;;;5070571;28;20032;-65
2022/12/27 12:27:05;;;;;;;4.93;2.42;;;12.00;97.50;;;;;;5070497;28;20094;-64
2022/12/27 12:30:11;;;;;;;7.18;2.60;;;12.10;97.30;;;;;;5070892;28;20107;-65
2022/12/27 12:32:48;;;;;;;4.45;2.42;;;12.20;97.30;;;;;;5050451;28;20083;-65
2022/12/27 12:35:47;;;;;;;7.30;2.90;;;12.20;97.30;;;;;;5054458;28;20040;-65
2022/12/27 12:38:37;;;;;;;8.52;3.10;;;12.20;97.10;;;;;;5054579;28;20040;-65
2022/12/27 12:41:39;;;;;;;7.63;3.95;;;12.20;97.30;;;;;;5054012;28;20040;-65
2022/12/27 12:44:20;;;;;;;7.82;2.85;;;12.20;97.00;;;;;;5054311;28;20025;-64
2022/12/27 12:47:18;;;;;;;6.18;2.83;;;12.20;97.10;;;;;;5072711;28;20032;-66
2022/12/27 12:50:17;;;;;;;4.85;2.83;;;12.20;97.10;;;;;;5051019;28;20539;-65
2022/12/27 12:53:07;;;;;;;5.97;2.97;;;12.20;97.10;;;;;;5053528;28;20107;-65
2022/12/27 12:56:11;;;;;;;5.93;2.28;;;12.20;97.10;;;;;;5054079;28;20068;-65
2022/12/27 12:59:12;;;;;;;7.63;2.80;;;12.40;97.10;;;;;;5047522;28;20033;-64
2022/12/27 13:02:21;;;;;;;6.38;2.38;;;12.30;96.80;;;;;;5058002;28;20494;-65
2022/12/27 13:05:10;;;;;;;7.18;2.35;;;12.40;97.00;;;;;;5055044;28;20102;-65
2022/12/27 13:07:48;;;;;;;5.30;2.30;;;12.40;96.80;;;;;;5049354;28;20040;-65
2022/12/27 13:10:43;;;;;;;8.07;3.13;;;12.40;97.00;;;;;;5053396;28;20498;-65
2022/12/27 13:13:13;;;;;;;12.95;3.63;;;12.40;96.40;;;;;;5055031;28;20053;-65
2022/12/27 13:16:01;;;;;;;8.10;2.88;;;12.40;96.40;;;;;;5053406;28;20492;-64
2022/12/27 13:18:45;;;;;;;6.13;2.35;;;12.50;96.50;;;;;;5072931;28;20028;-65
2022/12/27 13:21:58;;;;;;;6.82;2.38;;;12.50;96.80;;;;;;5074714;28;20111;-66
2022/12/27 13:24:30;;;;;;;;;;;12.60;96.40;;;;;;5072890;28;20558;-65
2022/12/27 13:27:01;;;;;;;4.53;2.38;;;12.50;96.00;;;;;;5074766;28;19908;-65
2022/12/27 13:30:00;;;;;;;5.97;2.95;;;12.50;96.40;;;;;;5074426;28;20040;-66
2022/12/27 13:32:53;;;;;;;7.20;2.10;;;12.50;96.40;;;;;;5074178;28;20032;-65
2022/12/27 13:35:37;;;;;;;8.25;2.67;;;12.60;96.40;;;;;;5073977;28;20024;-65
2022/12/27 13:38:17;;;;;;;7.93;3.20;;;12.50;96.30;;;;;;5074507;28;20040;-65
2022/12/27 13:41:18;;;;;;;7.40;2.70;;;12.60;96.30;;;;;;5074425;28;20081;-65
2022/12/27 13:44:11;;;;;;;6.72;3.10;;;12.60;96.40;;;;;;5054614;28;20110;-65
2022/12/27 13:47:01;;;;;;;5.88;2.90;;;12.60;96.30;;;;;;5074370;28;20082;-65
2022/12/27 13:49:26;;;;;;;10.10;2.97;;;12.50;96.30;;;;;;5073954;28;20040;-65
2022/12/27 13:52:01;;;;;;;4.38;2.45;;;12.60;96.50;;;;;;5073898;28;20496;-65
2022/12/27 13:54:56;;;;;;;7.63;3.10;;;12.70;96.40;;;;;;5073876;28;20111;-66
2022/12/27 13:58:00;;;;;;;8.32;3.97;;;12.70;96.40;;;;;;5074013;28;20017;-66
2022/12/27 14:00:36;;;;;;;6.72;3.08;;;12.70;96.20;;;;;;5062584;28;20044;-65
2022/12/27 14:03:42;;;;;;;5.13;2.55;;;12.80;96.10;;;;;;5074002;28;20025;-65
2022/12/27 14:06:26;;;;;;;10.50;3.30;;;12.80;96.10;;;;;;5054001;28;20033;-65
2022/12/27 14:09:13;;;;;;;6.65;2.60;;;12.80;96.10;;;;;;5053268;28;20727;-66
2022/12/27 14:12:00;;;;;;;8.27;2.78;;;12.70;96.20;;;;;;5053842;28;20040;-65
2022/12/27 14:14:26;;;;;;;5.15;2.30;;;12.80;96.10;;;;;;5053855;28;20033;-65
2022/12/27 14:17:04;;;;;;;4.90;2.60;;;12.80;96.30;;;;;;5053796;28;20386;-65
2022/12/27 14:19:47;;;;;;;5.30;2.33;;;12.90;96.10;;;;;;5062389;28;20020;-65
2022/12/27 14:22:28;;;;;;;9.05;2.72;;;13.00;96.20;;;;;;5072555;28;20040;-66
2022/12/27 14:25:15;;;;;;;5.05;1.98;;;13.00;96.00;;;;;;5073385;28;20060;-65
2022/12/27 14:28:03;;;;;;;7.65;2.85;;;13.00;95.90;;;;;;5073627;28;20031;-65
2022/12/27 14:31:23;;;;;;;4.25;2.15;;;13.00;96.20;;;;;;5071963;28;20032;-65
2022/12/27 14:33:51;;;;;;;3.42;2.50;;;13.00;95.80;;;;;;5035758;28;20506;-69
2022/12/27 14:36:39;;;;;;;6.45;2.50;;;13.00;95.80;;;;;;5066079;28;20112;-64
2022/12/27 14:39:42;;;;;;;7.20;2.60;;;13.00;95.50;;;;;;5072051;28;20028;-66
2022/12/27 14:42:49;;;;;;;6.18;3.03;;;13.00;95.60;;;;;;5072372;28;20036;-69
2022/12/27 14:45:23;;;;;;;5.55;2.50;;;13.00;95.50;;;;;;5071794;28;20024;-64
2022/12/27 14:48:22;;;;;;;8.13;2.47;;;13.00;95.70;;;;;;5072351;28;20052;-67
2022/12/27 14:50:54;;;;;;;7.00;2.33;;;13.00;95.60;;;;;;5071770;28;20052;-65
2022/12/27 14:53:35;;;;;;;5.80;3.10;;;13.00;95.60;;;;;;5072521;28;20029;-63
2022/12/27 14:56:25;;;;;;;10.15;2.47;;;13.00;95.50;;;;;;5071649;28;20652;-62
2022/12/27 14:58:59;;;;;;;6.95;2.25;;;13.00;95.60;;;;;;5071257;28;20066;-66
2022/12/27 15:01:47;;;;;;;5.15;2.20;;;13.10;95.70;;;;;;5071380;28;20024;-64
2022/12/27 15:04:24;;;;;;;8.75;2.90;;;13.10;95.40;;;;;;5072304;28;20024;-66